Time;durP1;ratioP1;P1;durP2;ratioP2;P2;SDS_P1;SDS_P2;PMS_P1;PMS_P2;Temp;Humidity;BMP_temperature;BMP_pressure;BME280_temperature;BME280_humidity;BME280_pressure;Samples;Min_cycle;Max_cycle;Signal;HPM_P1;HPM_P2
2023/03/10 00:01:47;;;;;;;8.55;2.50;;;21.70;48.70;;;;;;6149473;29;20074;-54
2023/03/10 00:04:49;;;;;;;7.63;2.92;;;21.90;48.90;;;;;;6151270;28;20074;-53
2023/03/10 00:07:50;;;;;;;10.00;2.90;;;22.10;48.90;;;;;;6153061;29;20047;-53
2023/03/10 00:10:52;;;;;;;;;;;21.60;48.70;;;;;;6153696;28;20070;-54
2023/03/10 00:13:55;;;;;;;9.02;2.75;;;21.40;48.60;;;;;;6152947;28;19922;-54
2023/03/10 00:16:57;;;;;;;6.30;2.22;;;21.80;48.80;;;;;;6151212;29;20051;-52
2023/03/10 00:19:59;;;;;;;6.65;2.30;;;21.70;48.80;;;;;;6153152;29;20090;-54
2023/03/10 00:23:00;;;;;;;;;;;21.60;48.70;;;;;;6153391;28;20048;-54
2023/03/10 00:26:02;;;;;;;6.00;2.42;;;21.70;48.90;;;;;;6152762;28;19957;-54
2023/03/10 00:29:06;;;;;;;8.60;3.55;;;21.60;48.80;;;;;;6150770;29;20050;-53
2023/03/10 00:32:11;;;;;;;7.25;2.33;;;21.80;48.90;;;;;;6152995;28;20047;-52
2023/03/10 00:35:12;;;;;;;7.22;2.38;;;21.70;48.90;;;;;;6152592;28;20044;-52
2023/03/10 00:38:13;;;;;;;;;;;21.80;48.90;;;;;;6153414;28;20459;-51
2023/03/10 00:41:18;;;;;;;6.82;2.65;;;21.70;49.00;;;;;;6152642;28;19929;-53
2023/03/10 00:44:20;;;;;;;6.65;2.60;;;21.60;48.80;;;;;;6152760;29;20047;-53
2023/03/10 00:47:22;;;;;;;10.60;2.80;;;21.70;48.80;;;;;;6152884;28;20090;-53
2023/03/10 00:50:24;;;;;;;7.53;2.80;;;21.80;48.80;;;;;;6152425;28;20090;-54
2023/03/10 00:53:26;;;;;;;;;;;21.60;48.60;;;;;;6135243;29;20043;-54
2023/03/10 00:56:28;;;;;;;;;;;22.10;48.90;;;;;;6153057;28;19929;-54
2023/03/10 00:59:30;;;;;;;7.22;2.50;;;21.50;48.60;;;;;;6152439;28;19926;-53
2023/03/10 01:02:51;;;;;;;8.88;2.63;;;21.60;48.70;;;;;;6152635;28;20039;-52
2023/03/10 01:05:56;;;;;;;10.57;3.03;;;21.60;48.70;;;;;;6151762;29;20054;-53
2023/03/10 01:08:58;;;;;;;5.97;2.55;;;21.40;48.50;;;;;;6150572;29;20487;-54
2023/03/10 01:12:00;;;;;;;6.75;2.90;;;21.80;48.70;;;;;;6151784;28;20496;-53
2023/03/10 01:15:01;;;;;;;;;;;21.70;48.70;;;;;;6152344;28;20051;-54
2023/03/10 01:18:06;;;;;;;7.80;2.55;;;21.70;48.70;;;;;;6151942;28;19926;-53
2023/03/10 01:21:15;;;;;;;5.70;2.35;;;21.80;48.80;;;;;;6151799;29;20050;-54
2023/03/10 01:24:18;;;;;;;8.52;2.33;;;21.60;48.60;;;;;;6151399;29;20047;-55
2023/03/10 01:27:21;;;;;;;7.28;2.45;;;21.60;48.60;;;;;;6151861;29;20067;-54
2023/03/10 01:30:25;;;;;;;4.88;2.17;;;21.60;48.60;;;;;;6151327;29;20082;-50
2023/03/10 01:33:27;;;;;;;6.70;2.75;;;21.70;48.60;;;;;;6151667;28;20044;-53
2023/03/10 01:36:29;;;;;;;4.22;1.98;;;21.50;48.40;;;;;;6151600;28;20106;-54
2023/03/10 01:39:30;;;;;;;8.10;2.47;;;21.40;48.30;;;;;;6151280;28;20137;-54
2023/03/10 01:42:32;;;;;;;4.82;1.83;;;21.80;48.50;;;;;;6151168;29;20047;-51
2023/03/10 01:45:47;;;;;;;;;;;21.40;48.20;;;;;;6151981;29;20047;-54
2023/03/10 01:48:51;;;;;;;5.20;2.10;;;21.40;48.20;;;;;;6150885;28;19949;-54
2023/03/10 01:51:57;;;;;;;6.97;2.15;;;21.60;48.20;;;;;;6151102;28;20051;-55
2023/03/10 01:55:05;;;;;;;5.88;1.88;;;21.20;47.80;;;;;;6149994;29;20435;-54
2023/03/10 01:58:09;;;;;;;4.70;2.00;;;21.50;47.80;;;;;;6134713;29;20047;-54
2023/03/10 02:01:11;;;;;;;4.55;1.45;;;21.50;47.70;;;;;;6151588;29;20046;-54
2023/03/10 02:04:22;;;;;;;5.80;2.03;;;21.70;47.80;;;;;;6149281;29;20043;-54
2023/03/10 02:07:28;;;;;;;6.13;2.00;;;21.60;47.60;;;;;;6151003;28;20508;-54
2023/03/10 02:10:29;;;;;;;5.78;2.05;;;21.70;47.70;;;;;;6150601;29;20392;-52
2023/03/10 02:13:33;;;;;;;;;;;21.70;47.60;;;;;;6151093;28;20051;-54
2023/03/10 02:16:34;;;;;;;3.67;1.75;;;21.40;47.60;;;;;;6150820;28;19929;-54
2023/03/10 02:19:51;;;;;;;4.35;1.40;;;21.60;47.70;;;;;;6150410;28;20058;-54
2023/03/10 02:22:53;;;;;;;3.83;1.27;;;21.60;47.60;;;;;;6150330;29;20054;-52
2023/03/10 02:26:03;;;;;;;3.92;1.33;;;21.50;47.50;;;;;;6164561;28;20039;-54
2023/03/10 02:29:11;;;;;;;4.88;1.55;;;21.40;47.40;;;;;;6149892;28;20058;-53
2023/03/10 02:32:15;;;;;;;4.80;1.38;;;21.40;47.30;;;;;;6150056;28;20073;-55
2023/03/10 02:35:19;;;;;;;5.20;1.40;;;21.60;47.40;;;;;;6150477;28;20098;-55
2023/03/10 02:38:28;;;;;;;5.65;1.95;;;21.60;47.30;;;;;;6150226;28;20420;-55
2023/03/10 02:41:34;;;;;;;5.45;1.60;;;21.40;47.10;;;;;;6150534;28;20047;-53
2023/03/10 02:44:38;;;;;;;4.05;1.90;;;21.40;47.00;;;;;;6150720;28;20109;-54
2023/03/10 02:47:40;;;;;;;3.65;1.38;;;21.60;47.10;;;;;;6150388;28;20086;-54
2023/03/10 02:50:46;;;;;;;2.53;1.17;;;21.50;46.90;;;;;;6150191;28;20515;-54
2023/03/10 02:53:48;;;;;;;4.30;1.48;;;21.50;46.70;;;;;;6148893;29;20126;-53
2023/03/10 02:56:50;;;;;;;5.15;1.77;;;21.50;46.70;;;;;;6150350;28;20086;-55
2023/03/10 02:59:52;;;;;;;3.58;1.08;;;21.60;46.70;;;;;;6150715;28;20077;-54
2023/03/10 03:02:54;;;;;;;3.40;1.48;;;21.30;46.30;;;;;;6150065;28;20047;-52
2023/03/10 03:05:56;;;;;;;2.63;1.00;;;21.60;46.40;;;;;;6150332;28;20440;-53
2023/03/10 03:08:57;;;;;;;4.00;1.40;;;21.30;46.10;;;;;;6148795;29;20047;-54
2023/03/10 03:12:01;;;;;;;4.25;1.65;;;21.60;46.20;;;;;;6149834;28;20134;-55
2023/03/10 03:15:05;;;;;;;3.28;1.15;;;21.50;46.00;;;;;;6150534;28;20043;-55
2023/03/10 03:18:07;;;;;;;5.05;1.58;;;21.60;46.00;;;;;;6150027;28;20043;-53
2023/03/10 03:21:14;;;;;;;2.70;1.02;;;21.30;45.80;;;;;;6150437;28;20039;-54
2023/03/10 03:24:17;;;;;;;4.43;1.20;;;21.30;45.60;;;;;;6150049;28;20060;-54
2023/03/10 03:27:19;;;;;;;1.75;0.70;;;21.30;45.60;;;;;;6149695;28;20073;-54
2023/03/10 03:30:22;;;;;;;;;;;21.40;45.60;;;;;;6150106;28;20047;-55
2023/03/10 03:33:25;;;;;;;1.90;0.82;;;21.30;45.60;;;;;;6148568;29;20327;-54
2023/03/10 03:36:26;;;;;;;;;;;21.50;45.70;;;;;;6150485;28;20377;-54
2023/03/10 03:39:28;;;;;;;;;;;21.50;45.70;;;;;;6153016;28;19930;-54
2023/03/10 03:42:33;;;;;;;1.52;0.70;;;21.30;45.70;;;;;;6154113;28;19926;-54
2023/03/10 03:45:35;;;;;;;1.52;0.80;;;21.40;45.60;;;;;;6153757;28;20130;-53
2023/03/10 03:48:37;;;;;;;1.65;0.95;;;21.50;45.60;;;;;;6153614;28;20539;-52
2023/03/10 03:51:42;;;;;;;1.52;0.75;;;21.30;45.30;;;;;;6153958;28;20440;-53
2023/03/10 03:54:45;;;;;;;1.45;0.57;;;21.20;45.10;;;;;;6153644;28;20421;-53
2023/03/10 03:57:47;;;;;;;1.17;0.70;;;21.30;45.00;;;;;;6153858;28;20504;-54
2023/03/10 04:00:49;;;;;;;1.30;0.50;;;21.40;45.00;;;;;;6152388;29;20043;-55
2023/03/10 04:03:53;;;;;;;1.05;0.65;;;21.40;44.90;;;;;;6153458;28;20047;-51
2023/03/10 04:06:55;;;;;;;2.00;0.57;;;21.40;44.80;;;;;;6152216;29;20047;-54
2023/03/10 04:09:57;;;;;;;1.02;0.40;;;21.20;44.70;;;;;;6153582;28;20055;-54
2023/03/10 04:12:59;;;;;;;0.80;0.38;;;21.50;44.80;;;;;;6153378;28;20070;-52
2023/03/10 04:16:04;;;;;;;1.05;0.50;;;21.50;44.70;;;;;;6153464;28;20423;-54
2023/03/10 04:19:09;;;;;;;1.02;0.40;;;21.20;44.50;;;;;;6153438;28;20051;-54
2023/03/10 04:22:16;;;;;;;1.58;0.63;;;21.30;44.50;;;;;;6153496;28;20070;-54
2023/03/10 04:25:22;;;;;;;0.57;0.32;;;21.50;44.50;;;;;;6152923;28;20062;-54
2023/03/10 04:28:25;;;;;;;0.57;0.30;;;21.30;44.30;;;;;;6153661;28;20051;-53
2023/03/10 04:31:27;;;;;;;0.35;0.20;;;21.50;44.40;;;;;;6152915;28;20105;-53
2023/03/10 04:34:29;;;;;;;1.10;0.45;;;21.40;44.20;;;;;;6152918;28;20130;-53
2023/03/10 04:37:32;;;;;;;1.00;0.40;;;21.30;44.10;;;;;;6152685;28;20408;-51
2023/03/10 04:40:36;;;;;;;0.40;0.28;;;21.50;44.20;;;;;;6152744;29;20491;-55
2023/03/10 04:43:38;;;;;;;0.73;0.32;;;21.20;44.00;;;;;;6153253;28;20075;-55
2023/03/10 04:46:41;;;;;;;0.70;0.50;;;21.40;44.00;;;;;;6153365;28;20043;-52
2023/03/10 04:49:44;;;;;;;0.95;0.40;;;21.20;43.90;;;;;;6152614;28;20046;-51
2023/03/10 04:52:49;;;;;;;1.13;0.30;;;21.50;44.40;;;;;;6152892;28;20051;-53
2023/03/10 04:55:52;;;;;;;1.02;0.30;;;21.20;43.80;;;;;;6152579;29;20058;-54
2023/03/10 04:58:54;;;;;;;0.95;0.38;;;21.40;43.90;;;;;;6152516;28;20420;-54
2023/03/10 05:02:01;;;;;;;0.60;0.30;;;21.20;43.70;;;;;;6152232;29;20050;-54
2023/03/10 05:05:04;;;;;;;0.73;0.28;;;21.20;43.60;;;;;;6152488;28;20577;-53
2023/03/10 05:08:09;;;;;;;0.55;0.20;;;21.40;43.70;;;;;;6151126;29;20054;-53
2023/03/10 05:11:10;;;;;;;;;;;21.30;43.50;;;;;;6153116;28;20462;-52
2023/03/10 05:14:12;;;;;;;;;;;21.20;43.60;;;;;;6152770;28;19922;-54
2023/03/10 05:17:17;;;;;;;0.63;0.30;;;21.30;43.70;;;;;;6150988;29;19953;-54
2023/03/10 05:20:20;;;;;;;0.70;0.40;;;21.30;43.60;;;;;;6152190;28;20055;-53
2023/03/10 05:23:28;;;;;;;1.38;0.40;;;21.30;43.30;;;;;;6152195;28;20523;-52
2023/03/10 05:26:29;;;;;;;1.30;0.43;;;21.00;42.90;;;;;;6150642;29;20043;-54
2023/03/10 05:29:33;;;;;;;0.90;0.40;;;21.40;42.90;;;;;;6151679;28;20099;-52
2023/03/10 05:32:46;;;;;;;1.33;0.60;;;21.00;42.60;;;;;;6151960;28;20052;-54
2023/03/10 05:35:48;;;;;;;1.45;0.30;;;21.20;42.50;;;;;;6151674;28;20047;-55
2023/03/10 05:38:50;;;;;;;1.05;0.47;;;21.30;42.40;;;;;;6151767;28;20114;-53
2023/03/10 05:41:54;;;;;;;1.15;0.40;;;21.30;42.30;;;;;;6151873;28;20447;-55
2023/03/10 05:45:00;;;;;;;1.40;0.70;;;21.40;42.20;;;;;;6151606;28;20048;-54
2023/03/10 05:48:02;;;;;;;1.33;0.47;;;21.10;42.50;;;;;;6151471;28;20175;-54
2023/03/10 05:51:08;;;;;;;1.20;0.50;;;21.40;41.90;;;;;;6151628;29;20420;-54
2023/03/10 05:54:10;;;;;;;1.55;0.50;;;21.20;41.70;;;;;;6135285;29;20503;-52
2023/03/10 05:57:12;;;;;;;1.98;0.47;;;21.10;42.10;;;;;;6151222;28;20039;-54
2023/03/10 06:00:17;;;;;;;1.00;0.60;;;21.30;41.50;;;;;;6151640;28;20058;-48
2023/03/10 06:03:30;;;;;;;2.25;0.70;;;21.20;41.20;;;;;;6149058;29;20054;-54
2023/03/10 06:06:31;;;;;;;1.35;0.47;;;21.20;41.10;;;;;;6151210;28;20046;-49
2023/03/10 06:09:35;;;;;;;;;;;21.10;40.80;;;;;;6151372;29;20075;-53
2023/03/10 06:12:36;;;;;;;0.98;0.40;;;21.00;40.90;;;;;;6151197;28;19929;-49
2023/03/10 06:15:40;;;;;;;1.23;0.50;;;21.00;40.80;;;;;;6151101;28;20047;-54
2023/03/10 06:18:42;;;;;;;0.88;0.55;;;21.10;40.60;;;;;;6151189;29;20050;-53
2023/03/10 06:21:44;;;;;;;0.95;0.25;;;21.30;40.50;;;;;;6149628;29;20050;-54
2023/03/10 06:24:45;;;;;;;1.13;0.60;;;20.90;40.10;;;;;;6149739;29;20039;-53
2023/03/10 06:27:47;;;;;;;1.27;0.40;;;20.90;40.00;;;;;;6150728;28;20492;-54
2023/03/10 06:30:52;;;;;;;;;;;20.90;39.90;;;;;;6151239;29;20086;-53
2023/03/10 06:33:54;;;;;;;0.98;0.43;;;21.00;40.00;;;;;;6150716;28;19922;-53
2023/03/10 06:36:56;;;;;;;0.90;0.40;;;21.00;40.00;;;;;;6150501;29;20043;-53
2023/03/10 06:39:57;;;;;;;;;;;21.20;39.90;;;;;;6150982;28;20047;-54
2023/03/10 06:42:59;;;;;;;1.23;0.50;;;20.90;39.80;;;;;;6150767;28;19922;-50
2023/03/10 06:46:04;;;;;;;1.10;0.52;;;20.90;39.70;;;;;;6150293;29;20048;-54
2023/03/10 06:49:06;;;;;;;1.38;0.45;;;20.90;39.40;;;;;;6149651;29;20114;-53
2023/03/10 06:52:08;;;;;;;0.95;0.35;;;21.10;39.30;;;;;;6150436;28;20039;-52
2023/03/10 06:55:12;;;;;;;1.00;0.40;;;20.80;39.00;;;;;;6150421;29;20043;-50
2023/03/10 06:58:14;;;;;;;1.00;0.30;;;20.90;38.90;;;;;;6150421;28;20042;-52
2023/03/10 07:01:22;;;;;;;0.80;0.50;;;21.20;38.90;;;;;;6150064;28;20047;-51
2023/03/10 07:04:24;;;;;;;0.65;0.40;;;20.90;38.50;;;;;;6148749;29;20043;-52
2023/03/10 07:07:26;;;;;;;0.75;0.40;;;21.10;38.60;;;;;;6150387;28;20044;-54
2023/03/10 07:10:27;;;;;;;0.82;0.25;;;20.80;38.40;;;;;;6150336;29;20389;-52
2023/03/10 07:13:29;;;;;;;1.08;0.30;;;21.10;38.40;;;;;;6151448;28;20043;-54
2023/03/10 07:16:31;;;;;;;;;;;21.00;38.30;;;;;;6154736;28;20058;-52
2023/03/10 07:19:33;;;;;;;2.00;0.55;;;20.80;38.30;;;;;;6154369;28;19945;-51
2023/03/10 07:22:36;;;;;;;0.55;0.30;;;20.90;38.40;;;;;;6153848;28;20063;-53
2023/03/10 07:25:39;;;;;;;0.70;0.50;;;21.00;38.10;;;;;;6154189;28;20046;-52
2023/03/10 07:28:40;;;;;;;1.30;0.45;;;20.80;37.80;;;;;;6154359;28;20051;-52
2023/03/10 07:31:43;;;;;;;1.10;0.52;;;21.00;37.70;;;;;;6154135;29;20058;-52
2023/03/10 07:34:50;;;;;;;0.88;0.50;;;21.10;37.60;;;;;;6153912;28;20515;-52
2023/03/10 07:37:53;;;;;;;0.40;0.20;;;21.20;37.30;;;;;;6153757;29;20043;-51
2023/03/10 07:40:55;;;;;;;0.47;0.30;;;21.10;37.10;;;;;;6153430;29;20102;-53
2023/03/10 07:43:56;;;;;;;;;;;21.10;37.10;;;;;;6154070;29;20052;-51
2023/03/10 07:46:58;;;;;;;0.90;0.43;;;21.30;37.20;;;;;;6153270;28;19929;-53
2023/03/10 07:50:00;;;;;;;0.55;0.30;;;21.10;37.20;;;;;;6153779;29;20047;-53
2023/03/10 07:53:02;;;;;;;0.60;0.30;;;20.90;37.00;;;;;;6153390;28;20098;-52
2023/03/10 07:56:04;;;;;;;0.80;0.45;;;21.00;36.80;;;;;;6153031;29;20055;-50
2023/03/10 07:59:06;;;;;;;0.57;0.30;;;20.80;36.60;;;;;;6152876;28;20047;-52
2023/03/10 08:02:10;;;;;;;0.52;0.30;;;21.20;36.80;;;;;;6152933;29;20448;-53
2023/03/10 08:05:13;;;;;;;0.68;0.25;;;21.20;36.60;;;;;;6153074;29;20039;-53
2023/03/10 08:08:15;;;;;;;1.85;0.30;;;20.90;36.30;;;;;;6152356;28;20393;-51
2023/03/10 08:11:18;;;;;;;0.50;0.30;;;21.10;36.40;;;;;;6152385;28;20071;-51
2023/03/10 08:14:22;;;;;;;0.68;0.20;;;21.00;36.20;;;;;;6151405;29;20049;-51
2023/03/10 08:17:29;;;;;;;0.88;0.25;;;21.20;36.30;;;;;;6152136;29;20042;-53
2023/03/10 08:20:31;;;;;;;0.80;0.50;;;21.30;36.20;;;;;;6152376;29;20516;-53
2023/03/10 08:23:34;;;;;;;1.80;0.45;;;21.10;36.40;;;;;;6152212;29;20043;-53
2023/03/10 08:26:35;;;;;;;0.70;0.50;;;21.10;36.10;;;;;;6151903;28;20412;-53
2023/03/10 08:29:37;;;;;;;1.02;0.30;;;21.10;36.00;;;;;;6152355;28;20035;-51
2023/03/10 08:32:39;;;;;;;0.55;0.30;;;21.30;36.00;;;;;;6152807;29;20054;-53
2023/03/10 08:35:41;;;;;;;0.88;0.40;;;21.30;35.90;;;;;;6152961;29;20058;-51
2023/03/10 08:38:43;;;;;;;1.05;0.20;;;21.20;35.80;;;;;;6152443;29;20043;-52
2023/03/10 08:41:48;;;;;;;0.80;0.35;;;21.00;35.70;;;;;;6151167;29;20075;-53
2023/03/10 08:44:50;;;;;;;1.17;0.30;;;21.10;35.60;;;;;;6152576;29;20047;-52
2023/03/10 08:47:51;;;;;;;1.25;0.40;;;21.30;35.70;;;;;;6152627;29;20067;-51
2023/03/10 08:50:53;;;;;;;;;;;21.00;36.20;;;;;;6153005;28;20047;-50
2023/03/10 08:53:55;;;;;;;;;;;21.30;35.80;;;;;;6152955;28;19930;-54
2023/03/10 08:56:56;;;;;;;0.43;0.20;;;21.00;35.80;;;;;;6152063;28;19922;-52
2023/03/10 08:59:58;;;;;;;0.77;0.30;;;21.40;36.00;;;;;;6151838;29;20051;-51
2023/03/10 09:03:00;;;;;;;1.55;0.50;;;21.00;35.70;;;;;;6151050;29;20130;-51
2023/03/10 09:06:02;;;;;;;;;;;21.20;35.70;;;;;;6152143;29;20051;-50
2023/03/10 09:09:06;;;;;;;2.67;0.35;;;21.30;35.80;;;;;;6151774;28;19961;-52
2023/03/10 09:12:09;;;;;;;1.15;0.45;;;21.10;35.70;;;;;;6151648;28;20055;-55
2023/03/10 09:15:11;;;;;;;0.88;0.40;;;21.30;35.70;;;;;;6150594;29;20178;-53
2023/03/10 09:18:14;;;;;;;0.93;0.43;;;21.30;35.70;;;;;;6151738;28;20046;-53
2023/03/10 09:21:18;;;;;;;0.75;0.30;;;21.10;35.40;;;;;;6150261;29;20055;-52
2023/03/10 09:24:19;;;;;;;0.40;0.30;;;21.20;35.30;;;;;;6134688;29;20067;-53
2023/03/10 09:27:21;;;;;;;0.40;0.20;;;21.20;35.30;;;;;;6151447;29;20051;-52
2023/03/10 09:30:23;;;;;;;0.55;0.30;;;21.40;35.30;;;;;;6151154;29;20051;-54
2023/03/10 09:33:24;;;;;;;1.10;0.57;;;21.10;35.10;;;;;;6150707;29;20047;-54
2023/03/10 09:36:28;;;;;;;0.57;0.28;;;21.40;35.10;;;;;;6151013;28;20066;-50
2023/03/10 09:39:30;;;;;;;1.40;0.52;;;21.40;35.00;;;;;;6149804;29;20047;-54
2023/03/10 09:42:37;;;;;;;0.90;0.20;;;21.30;34.90;;;;;;6151420;29;20039;-54
2023/03/10 09:45:46;;;;;;;0.88;0.50;;;21.20;34.70;;;;;;6149765;29;20441;-54
2023/03/10 09:48:59;;;;;;;0.60;0.45;;;21.20;34.60;;;;;;6133924;29;20047;-54
2023/03/10 09:52:17;;;;;;;0.95;0.32;;;21.40;34.60;;;;;;6150385;29;20055;-54
2023/03/10 09:55:21;;;;;;;0.65;0.30;;;21.30;34.50;;;;;;6151170;28;20381;-52
2023/03/10 09:58:31;;;;;;;0.35;0.20;;;21.40;34.50;;;;;;6149220;29;20047;-54
2023/03/10 10:01:36;;;;;;;0.60;0.30;;;21.20;34.10;;;;;;6150430;28;20050;-52
2023/03/10 10:04:41;;;;;;;0.50;0.30;;;21.30;34.30;;;;;;6149560;29;20039;-54
2023/03/10 10:07:46;;;;;;;0.25;0.20;;;21.50;34.30;;;;;;6151034;28;20480;-54
2023/03/10 10:10:51;;;;;;;1.00;0.30;;;21.40;34.20;;;;;;6133547;28;20054;-54
2023/03/10 10:13:59;;;;;;;0.88;0.30;;;21.20;34.10;;;;;;6149392;29;20040;-53
2023/03/10 10:17:14;;;;;;;0.50;0.15;;;21.30;34.00;;;;;;6150305;28;20050;-52
2023/03/10 10:20:19;;;;;;;0.68;0.32;;;21.60;34.10;;;;;;6150503;28;20077;-54
2023/03/10 10:23:27;;;;;;;0.90;0.20;;;21.40;34.00;;;;;;6150864;28;20039;-53
2023/03/10 10:26:28;;;;;;;1.33;0.30;;;21.40;33.90;;;;;;6150459;28;20039;-53
2023/03/10 10:29:33;;;;;;;;;;;21.40;33.90;;;;;;6150601;29;20529;-54
2023/03/10 10:32:54;;;;;;;0.55;0.25;;;21.40;33.90;;;;;;6150554;28;20059;-52
2023/03/10 10:36:04;;;;;;;0.80;0.30;;;21.50;33.90;;;;;;6150441;28;20043;-54
2023/03/10 10:39:23;;;;;;;0.50;0.32;;;21.40;33.90;;;;;;6149430;29;20090;-54
2023/03/10 10:42:29;;;;;;;0.43;0.30;;;21.40;33.70;;;;;;6149973;28;20054;-53
2023/03/10 10:45:39;;;;;;;0.50;0.30;;;21.70;33.90;;;;;;6150743;28;20094;-52
2023/03/10 10:48:44;;;;;;;0.55;0.20;;;21.50;33.60;;;;;;6147975;28;20424;-52
2023/03/10 10:51:57;;;;;;;0.50;0.40;;;21.50;33.60;;;;;;6148993;29;20129;-52
2023/03/10 10:55:01;;;;;;;0.97;0.30;;;21.60;33.60;;;;;;6150053;29;20043;-54
2023/03/10 10:58:05;;;;;;;0.40;0.30;;;21.40;33.60;;;;;;6150269;29;20054;-54
2023/03/10 11:01:09;;;;;;;0.90;0.38;;;21.70;33.60;;;;;;6150030;29;20055;-54
2023/03/10 11:04:12;;;;;;;0.95;0.30;;;21.50;33.40;;;;;;6149956;29;20518;-54
2023/03/10 11:07:25;;;;;;;0.40;0.30;;;21.30;33.20;;;;;;6148359;28;20075;-55
2023/03/10 11:10:32;;;;;;;0.73;0.25;;;21.70;33.30;;;;;;6149831;28;20059;-53
2023/03/10 11:13:45;;;;;;;0.20;0.13;;;21.50;33.10;;;;;;6149769;28;20035;-54
2023/03/10 11:16:53;;;;;;;0.30;0.22;;;21.40;32.90;;;;;;6149659;28;20046;-54
2023/03/10 11:20:01;;;;;;;0.55;0.20;;;21.40;32.90;;;;;;6149974;29;20039;-52
2023/03/10 11:23:16;;;;;;;0.77;0.20;;;21.50;32.90;;;;;;6133427;29;20051;-53
2023/03/10 11:26:26;;;;;;;0.90;0.40;;;21.50;32.80;;;;;;6149510;29;20044;-53
2023/03/10 11:29:46;;;;;;;0.60;0.30;;;21.40;32.80;;;;;;6149384;28;20416;-54
2023/03/10 11:33:04;;;;;;;0.60;0.30;;;21.60;33.50;;;;;;6149799;29;20074;-51
2023/03/10 11:36:16;;;;;;;0.30;0.20;;;21.50;32.80;;;;;;6149943;28;20071;-53
2023/03/10 11:39:25;;;;;;;0.68;0.20;;;21.40;32.70;;;;;;6149374;28;20043;-54
2023/03/10 11:42:35;;;;;;;0.55;0.25;;;21.70;32.80;;;;;;6149610;29;20499;-52
2023/03/10 11:45:43;;;;;;;0.68;0.40;;;21.50;32.60;;;;;;6149381;29;20059;-53
2023/03/10 11:48:55;;;;;;;0.68;0.20;;;21.70;32.70;;;;;;6149075;29;20048;-51
2023/03/10 11:51:59;;;;;;;0.25;0.20;;;21.40;32.40;;;;;;6148804;29;20047;-54
2023/03/10 11:55:04;;;;;;;0.30;0.20;;;21.60;32.50;;;;;;6149200;28;20050;-53
2023/03/10 11:58:20;;;;;;;0.50;0.30;;;21.40;32.30;;;;;;6132772;29;20040;-53
2023/03/10 12:01:26;;;;;;;0.77;0.20;;;21.50;32.30;;;;;;6136766;29;20091;-54
2023/03/10 12:04:32;;;;;;;1.05;0.30;;;21.70;32.40;;;;;;6152061;29;20483;-53
2023/03/10 12:07:37;;;;;;;0.60;0.25;;;21.60;32.40;;;;;;6152908;29;20472;-53
2023/03/10 12:10:41;;;;;;;0.32;0.15;;;21.40;32.30;;;;;;6152302;29;20047;-52
2023/03/10 12:13:46;;;;;;;0.55;0.40;;;21.50;32.30;;;;;;6135935;29;20420;-50
2023/03/10 12:16:49;;;;;;;0.93;0.30;;;21.50;32.30;;;;;;6151351;29;20043;-52
2023/03/10 12:20:10;;;;;;;0.50;0.25;;;21.60;32.30;;;;;;6153470;28;20058;-50
2023/03/10 12:23:25;;;;;;;;;;;21.40;31.90;;;;;;6151677;29;20059;-54
2023/03/10 12:26:55;;;;;;;0.60;0.10;;;21.60;32.20;;;;;;6152785;29;19926;-52
2023/03/10 12:29:57;;;;;;;0.40;0.20;;;21.50;32.00;;;;;;6152240;28;20055;-54
2023/03/10 12:32:58;;;;;;;0.60;0.30;;;21.60;32.10;;;;;;6153185;29;20074;-53
2023/03/10 12:36:01;;;;;;;;;;;21.60;32.20;;;;;;6153828;28;20035;-53
2023/03/10 12:39:25;;;;;;;0.75;0.22;;;21.70;32.10;;;;;;6152363;28;20397;-50
2023/03/10 12:42:33;;;;;;;0.47;0.25;;;21.30;31.80;;;;;;6152295;28;20043;-51
2023/03/10 12:45:40;;;;;;;0.50;0.40;;;21.50;31.80;;;;;;6152030;29;20451;-48
2023/03/10 12:48:47;;;;;;;0.40;0.20;;;21.70;31.80;;;;;;6152401;29;20055;-53
2023/03/10 12:51:54;;;;;;;0.65;0.20;;;21.70;31.70;;;;;;6152357;28;20095;-51
2023/03/10 12:55:10;;;;;;;0.55;0.30;;;21.70;31.70;;;;;;6152331;29;20427;-53
2023/03/10 12:58:17;;;;;;;0.40;0.20;;;21.80;31.60;;;;;;6152309;29;20055;-50
2023/03/10 13:01:22;;;;;;;0.20;0.17;;;21.70;31.50;;;;;;6152088;29;20043;-51
2023/03/10 13:04:26;;;;;;;0.10;0.10;;;21.80;31.60;;;;;;6135107;29;20101;-51
2023/03/10 13:07:29;;;;;;;0.30;0.20;;;21.70;31.40;;;;;;6151981;29;20507;-54
2023/03/10 13:10:34;;;;;;;0.40;0.22;;;21.70;31.40;;;;;;6149878;28;20055;-51
2023/03/10 13:13:37;;;;;;;0.45;0.40;;;21.70;31.40;;;;;;6150484;28;20043;-52
2023/03/10 13:16:52;;;;;;;0.40;0.20;;;21.70;31.30;;;;;;6151856;29;20060;-54
2023/03/10 13:20:00;;;;;;;0.50;0.40;;;21.50;31.20;;;;;;6135055;29;20519;-53
2023/03/10 13:23:02;;;;;;;0.45;0.20;;;21.80;31.40;;;;;;6150496;29;20463;-52
2023/03/10 13:26:06;;;;;;;0.63;0.30;;;21.90;31.40;;;;;;6151854;29;20043;-53
2023/03/10 13:29:16;;;;;;;0.55;0.20;;;21.80;31.20;;;;;;6150134;29;20456;-54
2023/03/10 13:32:20;;;;;;;0.20;0.00;;;21.70;31.10;;;;;;6151423;29;20500;-51
2023/03/10 13:35:25;;;;;;;0.22;0.13;;;22.00;31.20;;;;;;6151344;28;20074;-53
2023/03/10 13:38:26;;;;;;;0.20;0.20;;;21.70;31.20;;;;;;6150766;29;20043;-54
2023/03/10 13:41:29;;;;;;;;;;;21.60;31.10;;;;;;6151404;29;20558;-53
2023/03/10 13:44:33;;;;;;;0.52;0.25;;;21.90;31.40;;;;;;6151047;28;20033;-53
2023/03/10 13:47:35;;;;;;;0.63;0.20;;;21.80;31.40;;;;;;6149845;29;20046;-53
2023/03/10 13:50:37;;;;;;;0.60;0.32;;;22.00;31.50;;;;;;6150871;29;20047;-52
2023/03/10 13:53:38;;;;;;;0.32;0.20;;;21.90;31.50;;;;;;6150815;29;20051;-54
2023/03/10 13:56:42;;;;;;;0.22;0.22;;;21.70;31.40;;;;;;6150165;29;20515;-53
2023/03/10 13:59:45;;;;;;;0.20;0.20;;;21.80;31.50;;;;;;6151016;28;20051;-54
2023/03/10 14:02:50;;;;;;;0.40;0.20;;;21.70;31.50;;;;;;6151398;28;20082;-52
2023/03/10 14:05:51;;;;;;;0.35;0.20;;;21.80;31.60;;;;;;6149860;29;20043;-52
2023/03/10 14:08:53;;;;;;;0.30;0.22;;;21.70;31.60;;;;;;6150631;29;20079;-54
2023/03/10 14:11:55;;;;;;;0.60;0.30;;;21.60;31.60;;;;;;6150428;28;20534;-54
2023/03/10 14:15:08;;;;;;;0.15;0.10;;;21.80;31.80;;;;;;6150795;29;20051;-53
2023/03/10 14:18:19;;;;;;;0.22;0.20;;;21.80;31.80;;;;;;6149878;29;20088;-53
2023/03/10 14:21:38;;;;;;;0.55;0.20;;;21.80;31.80;;;;;;6149411;29;20047;-55
2023/03/10 14:24:47;;;;;;;0.30;0.20;;;21.70;31.70;;;;;;6148930;29;20039;-55
2023/03/10 14:27:54;;;;;;;0.50;0.20;;;21.90;31.90;;;;;;6150453;29;20094;-50
2023/03/10 14:30:55;;;;;;;0.38;0.20;;;21.90;32.10;;;;;;6150617;28;20554;-54
2023/03/10 14:33:58;;;;;;;0.65;0.20;;;21.90;32.20;;;;;;6148901;29;20534;-52
2023/03/10 14:37:00;;;;;;;0.22;0.20;;;21.70;32.20;;;;;;6150314;28;20044;-54
2023/03/10 14:40:03;;;;;;;0.30;0.20;;;21.90;32.40;;;;;;6150562;28;20051;-53
2023/03/10 14:43:05;;;;;;;0.22;0.20;;;21.70;32.30;;;;;;6150121;29;20047;-50
2023/03/10 14:46:09;;;;;;;0.35;0.10;;;21.60;32.40;;;;;;6149893;29;20051;-54
2023/03/10 14:49:15;;;;;;;0.38;0.20;;;21.70;32.60;;;;;;6149040;29;20039;-53
2023/03/10 14:52:19;;;;;;;0.20;0.10;;;21.90;32.80;;;;;;6149831;28;20109;-53
2023/03/10 14:55:22;;;;;;;0.73;0.20;;;21.90;32.90;;;;;;6149852;29;20047;-54
2023/03/10 14:58:29;;;;;;;0.40;0.30;;;21.70;32.90;;;;;;6149485;29;20051;-53
2023/03/10 15:01:30;;;;;;;0.40;0.25;;;21.90;33.10;;;;;;6149965;29;20098;-53
2023/03/10 15:04:33;;;;;;;0.20;0.20;;;21.80;33.20;;;;;;6149748;29;20050;-53
2023/03/10 15:07:35;;;;;;;0.88;0.30;;;21.90;33.40;;;;;;6149822;28;20039;-53
2023/03/10 15:10:39;;;;;;;0.13;0.10;;;21.60;33.40;;;;;;6149894;29;20456;-54
2023/03/10 15:13:41;;;;;;;0.25;0.20;;;22.00;33.80;;;;;;6149704;28;20051;-51
2023/03/10 15:16:43;;;;;;;0.17;0.17;;;21.90;33.80;;;;;;6150585;29;20404;-54
2023/03/10 15:19:45;;;;;;;0.60;0.30;;;21.80;34.00;;;;;;6150365;28;20046;-51
2023/03/10 15:22:48;;;;;;;0.28;0.20;;;21.80;34.20;;;;;;6149988;29;20456;-52
2023/03/10 15:25:53;;;;;;;0.20;0.20;;;21.70;34.30;;;;;;6148439;29;20083;-54
2023/03/10 15:28:54;;;;;;;0.50;0.30;;;21.80;34.40;;;;;;6150067;29;20408;-54
2023/03/10 15:31:56;;;;;;;;;;;21.60;34.60;;;;;;6150034;28;20047;-54
2023/03/10 15:34:58;;;;;;;0.30;0.30;;;21.90;34.80;;;;;;6151662;28;19978;-51
2023/03/10 15:38:00;;;;;;;0.85;0.17;;;21.60;34.80;;;;;;6153814;29;20051;-52
2023/03/10 15:41:04;;;;;;;0.20;0.10;;;21.80;35.10;;;;;;6154056;28;20046;-54
2023/03/10 15:44:06;;;;;;;0.45;0.30;;;21.80;35.20;;;;;;6153477;29;20460;-53
2023/03/10 15:47:08;;;;;;;0.25;0.25;;;21.80;35.40;;;;;;6153803;28;20043;-51
2023/03/10 15:50:15;;;;;;;0.38;0.25;;;21.80;35.50;;;;;;6153328;29;20496;-52
2023/03/10 15:53:16;;;;;;;0.50;0.30;;;21.90;35.80;;;;;;6152163;29;20051;-52
2023/03/10 15:56:17;;;;;;;;;;;21.70;35.80;;;;;;6153744;28;20376;-54
2023/03/10 15:59:19;;;;;;;0.40;0.30;;;22.00;36.00;;;;;;6153680;28;19929;-52
2023/03/10 16:02:21;;;;;;;;;;;21.70;35.80;;;;;;6153571;29;20055;-53
2023/03/10 16:05:23;;;;;;;0.50;0.40;;;21.80;36.00;;;;;;6153886;28;19922;-54
2023/03/10 16:08:24;;;;;;;0.30;0.28;;;21.70;36.00;;;;;;6153149;29;20078;-52
2023/03/10 16:11:26;;;;;;;;;;;21.60;36.00;;;;;;6153326;28;20051;-52